createdAt,value
2019-01-17T00:03:41.518Z,53.9
2019-01-17T00:08:42.103Z,53.8
2019-01-17T00:13:42.727Z,53.7
2019-01-17T00:18:43.325Z,53.7
2019-01-17T00:23:43.941Z,53.6
2019-01-17T00:28:44.567Z,53.5
2019-01-17T00:33:45.216Z,53.4
2019-01-17T00:38:45.829Z,53.4
2019-01-17T00:43:46.474Z,53.3
2019-01-17T00:48:47.106Z,53.3
2019-01-17T00:53:47.737Z,53.2
2019-01-17T00:58:48.356Z,53.1
2019-01-17T01:03:48.951Z,53.1
2019-01-17T01:08:49.571Z,53
2019-01-17T01:13:50.139Z,52.9
2019-01-17T01:18:50.728Z,52.8
2019-01-17T01:23:51.333Z,52.7
2019-01-17T01:28:51.945Z,52.7
2019-01-17T01:33:52.581Z,52.6
2019-01-17T01:38:53.207Z,52.6
2019-01-17T01:43:53.808Z,52.5
2019-01-17T01:48:54.443Z,52.4
2019-01-17T01:53:55.084Z,52.3
2019-01-17T01:58:55.698Z,52.2
2019-01-17T02:03:56.249Z,52.2
2019-01-17T02:08:56.792Z,52.1
2019-01-17T02:13:57.396Z,52.1
2019-01-17T02:18:57.978Z,52
2019-01-17T02:23:58.515Z,51.9
2019-01-17T02:28:59.070Z,51.9
2019-01-17T02:33:59.594Z,51.7
2019-01-17T02:39:00.137Z,51.7
2019-01-17T02:44:00.696Z,51.6
2019-01-17T02:49:01.284Z,51.6
2019-01-17T02:54:01.756Z,51.5
2019-01-17T02:59:02.382Z,51.4
2019-01-17T03:04:02.826Z,51.4
2019-01-17T03:09:06.099Z,51.3
2019-01-17T03:14:08.274Z,51.2
2019-01-17T03:19:10.402Z,51.2
2019-01-17T03:24:12.522Z,51.1
2019-01-17T03:29:14.657Z,51.1
2019-01-17T03:34:15.112Z,50.9
2019-01-17T03:39:15.682Z,50.9
2019-01-17T03:44:16.191Z,50.8
2019-01-17T03:49:16.781Z,50.8
2019-01-17T03:54:17.359Z,50.7
2019-01-17T03:59:17.887Z,50.6
2019-01-17T04:04:21.101Z,50.6
2019-01-17T04:09:21.637Z,50.5
2019-01-17T04:14:24.629Z,50.4
2019-01-17T04:19:25.192Z,50.4
2019-01-17T04:24:25.782Z,50.3
2019-01-17T04:29:26.301Z,50.2
2019-01-17T04:34:26.847Z,50.2
2019-01-17T04:39:27.347Z,50.1
2019-01-17T04:44:27.852Z,50.1
2019-01-17T04:49:28.370Z,50
2019-01-17T04:54:30.538Z,49.9
2019-01-17T04:59:32.668Z,49.9
2019-01-17T05:04:35.985Z,49.8
2019-01-17T05:09:42.034Z,49.7
2019-01-17T05:14:44.158Z,49.7
2019-01-17T05:19:46.254Z,49.6
2019-01-17T05:24:49.026Z,49.6
2019-01-17T05:29:51.130Z,49.5
2019-01-17T05:34:53.197Z,49.4
2019-01-17T05:39:55.283Z,49.4
2019-01-17T05:44:57.414Z,49.2
2019-01-17T05:49:59.521Z,49.2
2019-01-17T05:55:01.578Z,49.1
2019-01-17T06:00:03.689Z,49.1
2019-01-17T06:05:05.763Z,49.1
2019-01-17T06:10:06.230Z,48.9
2019-01-17T06:15:06.695Z,48.9
2019-01-17T06:20:07.191Z,48.9
2019-01-17T06:25:07.705Z,48.8
2019-01-17T06:30:09.838Z,48.7
2019-01-17T06:35:11.933Z,48.7
2019-01-17T06:40:14.055Z,48.6
2019-01-17T06:45:16.185Z,48.6
2019-01-17T06:50:18.306Z,48.5
2019-01-17T06:55:20.413Z,48.4
2019-01-17T07:00:22.517Z,48.4
2019-01-17T07:05:24.686Z,48.3
2019-01-17T07:10:26.816Z,48.3
2019-01-17T07:15:28.895Z,48.2
2019-01-17T07:20:30.992Z,48.1
2019-01-17T07:25:33.068Z,48.1
2019-01-17T07:30:40.082Z,48
2019-01-17T07:35:42.198Z,47.9
2019-01-17T07:40:46.671Z,47.9
2019-01-17T07:45:48.760Z,47.8
2019-01-17T07:50:50.826Z,47.7
2019-01-17T07:55:52.860Z,47.7
2019-01-17T08:00:54.937Z,47.7
2019-01-17T08:05:59.685Z,47.6
2019-01-17T08:11:01.853Z,47.6
2019-01-17T08:16:03.878Z,47.5
2019-01-17T08:21:05.977Z,47.4
2019-01-17T08:26:08.063Z,47.4
2019-01-17T08:31:13.155Z,47.3
2019-01-17T08:36:15.169Z,47.2
2019-01-17T08:41:17.297Z,47.2
2019-01-17T08:46:19.378Z,47.2
2019-01-17T08:51:21.448Z,47.1
2019-01-17T08:56:23.480Z,47.1
2019-01-17T09:01:25.517Z,47
2019-01-17T09:06:27.562Z,46.9
2019-01-17T09:11:29.631Z,46.9
2019-01-17T09:16:31.679Z,46.8
2019-01-17T09:21:33.732Z,46.7
2019-01-17T09:26:35.823Z,46.7
2019-01-17T09:31:37.859Z,46.7
2019-01-17T09:36:39.916Z,46.6
2019-01-17T09:41:41.970Z,46.6
2019-01-17T09:46:44.000Z,46.5
2019-01-17T09:51:46.063Z,46.4
2019-01-17T09:56:48.066Z,46.4
2019-01-17T10:01:50.159Z,46.4
2019-01-17T10:06:52.190Z,46.3
2019-01-17T10:11:54.254Z,46.2
2019-01-17T10:16:56.281Z,46.2
2019-01-17T10:21:58.333Z,46.1
2019-01-17T10:27:00.423Z,46.1
2019-01-17T10:32:02.535Z,46.1
2019-01-17T10:37:04.626Z,46
2019-01-17T10:42:06.840Z,45.9
2019-01-17T10:47:08.896Z,45.9
2019-01-17T10:52:10.910Z,45.9
2019-01-17T10:57:13.613Z,45.8
2019-01-17T11:02:15.767Z,45.8
2019-01-17T11:07:17.829Z,45.7
2019-01-17T11:12:19.826Z,45.6
2019-01-17T11:17:21.900Z,45.6
2019-01-17T11:22:23.921Z,45.6
2019-01-17T11:27:25.970Z,45.5
2019-01-17T11:32:27.577Z,45.4
2019-01-17T11:37:32.343Z,45.4
2019-01-17T11:42:34.375Z,45.4
2019-01-17T11:47:36.434Z,45.3
2019-01-17T11:52:38.477Z,45.2
2019-01-17T11:57:40.467Z,45.2
2019-01-17T12:02:42.551Z,45.2
2019-01-17T12:07:46.147Z,45.1
2019-01-17T12:12:48.276Z,45.1
2019-01-17T12:17:50.257Z,45
2019-01-17T12:22:52.472Z,44.9
2019-01-17T12:27:54.560Z,44.9
2019-01-17T12:32:56.558Z,44.9
2019-01-17T12:37:59.064Z,44.8
2019-01-17T12:43:02.184Z,44.7
2019-01-17T12:48:04.142Z,44.7
2019-01-17T12:53:06.120Z,44.7
2019-01-17T12:58:08.035Z,44.6
2019-01-17T13:03:10.021Z,44.6
2019-01-17T13:08:12.220Z,44.6
2019-01-17T13:13:14.258Z,44.5
2019-01-17T13:18:16.234Z,44.4
2019-01-17T13:23:18.244Z,44.4
2019-01-17T13:28:20.242Z,44.4
2019-01-17T13:33:22.282Z,44.3
2019-01-17T13:38:24.237Z,44.2
2019-01-17T13:43:27.456Z,44.2
2019-01-17T13:48:29.449Z,44.2
2019-01-17T13:53:31.411Z,44.1
2019-01-17T13:58:33.362Z,44.1
2019-01-17T14:03:38.049Z,44.1
2019-01-17T14:08:40.038Z,44
2019-01-17T14:13:42.028Z,43.9
2019-01-17T14:18:43.972Z,43.9
2019-01-17T14:23:45.939Z,43.9
2019-01-17T14:28:47.962Z,43.8
2019-01-17T14:33:49.932Z,43.7
2019-01-17T14:38:51.919Z,43.7
2019-01-17T14:43:53.448Z,43.7
2019-01-17T14:48:55.423Z,43.6
2019-01-17T14:53:57.443Z,43.6
2019-01-17T14:59:00.547Z,43.6
2019-01-17T15:04:06.364Z,43.5
2019-01-17T15:09:08.850Z,43.5
2019-01-17T15:14:10.866Z,43.4
2019-01-17T15:19:12.829Z,43.4
2019-01-17T15:24:14.804Z,43.4
2019-01-17T15:29:16.757Z,43.3
2019-01-17T15:34:18.905Z,43.3
2019-01-17T15:39:20.897Z,43.3
2019-01-17T15:44:22.880Z,43.2
2019-01-17T15:49:24.843Z,43.1
2019-01-17T15:54:26.774Z,43.1
2019-01-17T15:59:28.698Z,43.1
2019-01-17T16:04:30.657Z,43
2019-01-17T16:09:32.667Z,43
2019-01-17T16:14:34.636Z,42.9
2019-01-17T16:19:36.578Z,42.9
2019-01-17T16:24:38.579Z,42.9
2019-01-17T16:29:40.605Z,42.8
2019-01-17T16:34:41.631Z,42.7
2019-01-17T16:39:43.577Z,42.7
2019-01-17T16:44:45.492Z,42.7
2019-01-17T16:49:47.476Z,42.7
2019-01-17T16:54:49.418Z,42.6
2019-01-17T16:59:51.368Z,42.6
2019-01-17T17:04:53.369Z,42.6
2019-01-17T17:09:55.299Z,42.5
2019-01-17T17:14:57.270Z,42.5
2019-01-17T17:19:59.251Z,42.7
2019-01-17T17:25:01.174Z,44.9
2019-01-17T17:35:09.779Z,47.6
2019-01-17T17:40:11.415Z,48.6
2019-01-17T17:45:13.551Z,49.5
2019-01-17T17:50:14.127Z,50.4
2019-01-17T17:55:14.805Z,50.9
2019-01-17T18:00:15.431Z,51.6
2019-01-17T18:05:15.995Z,52.1
2019-01-17T18:10:18.515Z,52.4
2019-01-17T18:15:19.547Z,52.9
2019-01-17T18:20:20.255Z,53.1
2019-01-17T18:25:20.850Z,53.3
2019-01-17T18:30:21.391Z,53.9
2019-01-17T18:35:21.981Z,54.2
2019-01-17T18:40:22.675Z,54.6
2019-01-17T18:45:23.350Z,54.7
2019-01-17T18:50:24.015Z,54.9
2019-01-17T18:55:27.091Z,55.1
2019-01-17T19:00:27.786Z,55.2
2019-01-17T19:05:28.554Z,55.2
2019-01-17T19:10:29.268Z,55.4
2019-01-17T19:15:29.959Z,55.4
2019-01-17T19:20:30.652Z,55.6
2019-01-17T19:25:34.131Z,55.6
2019-01-17T19:30:35.908Z,56
2019-01-17T19:35:36.639Z,56.3
2019-01-17T19:40:37.340Z,56.4
2019-01-17T19:45:38.106Z,56.6
2019-01-17T19:50:38.814Z,56.9
2019-01-17T19:55:39.482Z,57
2019-01-17T20:00:40.201Z,57.1
2019-01-17T20:05:40.893Z,57.2
2019-01-17T20:10:41.709Z,57.6
2019-01-17T20:15:42.443Z,57.7
2019-01-17T20:20:43.194Z,57.7
2019-01-17T20:25:43.977Z,57.7
2019-01-17T20:30:44.670Z,57.6
2019-01-17T20:35:48.238Z,57.6
2019-01-17T20:40:49.089Z,57.6
2019-01-17T20:45:49.802Z,57.5
2019-01-17T20:50:50.468Z,57.4
2019-01-17T20:55:51.169Z,57.4
2019-01-17T21:00:51.826Z,57.4
2019-01-17T21:05:56.551Z,57.3
2019-01-17T21:10:57.206Z,57.2
2019-01-17T21:16:01.261Z,57.2
2019-01-17T21:21:02.322Z,57.1
2019-01-17T21:26:03.177Z,57.1
2019-01-17T21:31:05.126Z,57
2019-01-17T21:36:05.873Z,56.9
2019-01-17T21:41:06.673Z,56.9
2019-01-17T21:46:07.400Z,56.9
2019-01-17T21:51:17.126Z,56.7
2019-01-17T21:56:17.811Z,56.7
2019-01-17T22:01:21.639Z,56.7
2019-01-17T22:06:25.256Z,56.6
2019-01-17T22:11:25.991Z,56.6
2019-01-17T22:16:26.763Z,56.4
2019-01-17T22:21:27.471Z,56.4
2019-01-17T22:26:28.151Z,56.4
2019-01-17T22:31:28.863Z,56.3
2019-01-17T22:36:29.551Z,56.2
2019-01-17T22:41:30.244Z,56.2
2019-01-17T22:46:30.991Z,56.1
2019-01-17T22:51:31.691Z,56
2019-01-17T22:56:32.386Z,56
2019-01-17T23:01:33.052Z,55.9
2019-01-17T23:06:33.745Z,55.9
2019-01-17T23:11:34.425Z,55.8
2019-01-17T23:16:35.130Z,55.7
2019-01-17T23:21:35.852Z,55.7
2019-01-17T23:26:36.554Z,55.6
2019-01-17T23:31:37.301Z,55.5
2019-01-17T23:36:40.751Z,55.4
2019-01-17T23:41:42.275Z,55.4
2019-01-17T23:46:42.992Z,55.3
2019-01-17T23:51:46.252Z,55.2
2019-01-17T23:56:47.003Z,55.2
